Time;durP1;ratioP1;P1;durP2;ratioP2;P2;SDS_P1;SDS_P2;PMS_P1;PMS_P2;Temp;Humidity;BMP_temperature;BMP_pressure;BME280_temperature;BME280_humidity;BME280_pressure;Samples;Min_cycle;Max_cycle;Signal;HPM_P1;HPM_P2
2023/07/20 00:02:18;;;;;;;8.48;5.03;;;;;;;18.79;74.85;101298.63;5095038;28;20039;-58
2023/07/20 00:04:44;;;;;;;11.15;4.80;;;;;;;18.73;74.88;101296.06;5095266;28;20458;-58
2023/07/20 00:07:09;;;;;;;11.05;5.10;;;;;;;18.75;75.55;101291.56;5095251;28;20024;-57
2023/07/20 00:09:35;;;;;;;13.02;5.18;;;;;;;18.58;76.13;101285.56;5094821;28;20515;-57
2023/07/20 00:12:00;;;;;;;8.90;4.93;;;;;;;18.62;75.72;101298.88;5095110;28;20020;-58
2023/07/20 00:14:25;;;;;;;10.45;4.97;;;;;;;18.75;75.22;101304.94;5094781;28;20032;-58
2023/07/20 00:16:55;;;;;;;11.73;5.43;;;;;;;18.65;76.03;101300.63;5095005;28;20036;-58
2023/07/20 00:19:31;;;;;;;8.48;5.00;;;;;;;18.64;76.11;101291.72;5095020;28;20062;-58
2023/07/20 00:21:57;;;;;;;11.48;4.90;;;;;;;18.67;75.74;101293.44;5094994;28;20032;-57
2023/07/20 00:24:23;;;;;;;11.40;5.35;;;;;;;18.64;75.77;101297.06;5094578;28;20100;-57
2023/07/20 00:26:48;;;;;;;12.07;5.25;;;;;;;18.71;75.34;101304.13;5076275;28;20032;-58
2023/07/20 00:29:13;;;;;;;10.10;5.40;;;;;;;18.73;75.49;101298.75;5094466;28;20032;-58
2023/07/20 00:31:39;;;;;;;12.10;5.60;;;;;;;18.71;75.37;101304.13;5076209;28;20077;-58
2023/07/20 00:34:05;;;;;;;14.90;5.45;;;;;;;18.68;75.29;101296.13;5094411;28;20508;-57
2023/07/20 00:36:30;;;;;;;12.00;5.60;;;;;;;18.57;75.98;101302.53;5094643;28;20115;-58
2023/07/20 00:38:56;;;;;;;11.88;5.47;;;;;;;18.58;75.52;101291.78;5094537;28;20024;-58
2023/07/20 00:41:21;;;;;;;10.45;5.13;;;;;;;18.58;75.55;101299.81;5094210;28;20028;-59
2023/07/20 00:43:47;;;;;;;11.48;5.57;;;;;;;18.55;76.20;101293.66;5094322;28;20107;-58
2023/07/20 00:46:13;;;;;;;11.38;5.70;;;;;;;18.56;76.10;101304.31;5094468;28;20488;-59
2023/07/20 00:48:40;;;;;;;11.00;5.57;;;;;;;18.53;75.95;101301.69;5094318;28;20036;-58
2023/07/20 00:51:05;;;;;;;10.77;5.68;;;;;;;18.47;76.03;101305.34;5094099;28;20481;-58
2023/07/20 00:53:31;;;;;;;10.43;5.88;;;;;;;18.46;76.47;101303.59;5076244;28;20035;-58
2023/07/20 00:55:57;;;;;;;13.35;6.00;;;;;;;18.49;75.89;101314.22;5094120;28;20478;-58
2023/07/20 00:58:23;;;;;;;11.68;5.75;;;;;;;18.45;76.60;101312.50;5076074;28;20055;-58
2023/07/20 01:00:48;;;;;;;13.32;6.07;;;;;;;18.37;77.27;101310.84;5094196;28;20032;-57
2023/07/20 01:03:14;;;;;;;12.80;5.93;;;;;;;18.41;77.12;101312.56;5093997;28;20028;-58
2023/07/20 01:05:54;;;;;;;12.10;5.50;;;;;;;18.38;77.40;101302.81;5093896;28;20028;-58
2023/07/20 01:08:47;;;;;;;11.43;5.72;;;;;;;18.46;77.36;101300.03;5093772;28;20389;-59
2023/07/20 01:11:29;;;;;;;12.20;5.38;;;;;;;18.46;77.43;101300.03;5094002;28;20024;-58
2023/07/20 01:13:55;;;;;;;16.15;5.70;;;;;;;18.43;78.23;101300.94;5093800;28;20477;-58
2023/07/20 01:16:20;;;;;;;14.77;5.82;;;;;;;18.49;78.19;101302.63;5093687;28;20106;-58
2023/07/20 01:18:46;;;;;;;13.35;5.93;;;;;;;18.48;78.74;101304.44;5075476;28;20060;-58
2023/07/20 01:21:21;;;;;;;11.57;6.03;;;;;;;18.49;78.76;101308.00;5093634;28;20027;-58
2023/07/20 01:24:11;;;;;;;11.23;5.55;;;;;;;18.50;78.61;101315.13;5093556;28;20032;-58
2023/07/20 01:27:16;;;;;;;11.32;5.70;;;;;;;18.56;78.13;101312.34;5093473;28;20394;-58
2023/07/20 01:30:08;;;;;;;10.55;5.60;;;;;;;18.56;78.42;101314.16;5093714;28;20082;-58
2023/07/20 01:32:36;;;;;;;13.45;5.85;;;;;;;18.53;78.41;101318.63;5093575;28;20030;-58
2023/07/20 01:35:04;;;;;;;13.70;6.35;;;;;;;18.40;78.98;101300.97;5093496;28;20012;-57
2023/07/20 01:37:30;;;;;;;11.55;5.97;;;;;;;18.53;79.33;101315.94;5093415;28;20465;-58
2023/07/20 01:39:57;;;;;;;15.35;6.00;;;;;;;18.51;78.90;101315.09;5093197;28;20020;-58
2023/07/20 01:42:24;;;;;;;10.70;5.68;;;;;;;18.57;78.99;101313.22;5092494;28;20531;-58
2023/07/20 01:44:53;;;;;;;12.20;6.20;;;;;;;18.56;79.34;101316.81;5093336;28;20058;-58
2023/07/20 01:47:19;;;;;;;11.32;5.78;;;;;;;18.52;79.70;101316.88;5093551;28;20028;-58
2023/07/20 01:49:44;;;;;;;12.60;6.53;;;;;;;18.57;79.15;101310.56;5093172;28;20078;-58
2023/07/20 01:52:09;;;;;;;11.45;6.32;;;;;;;18.52;79.99;101322.22;5093308;28;20028;-57
2023/07/20 01:54:35;;;;;;;13.20;5.85;;;;;;;18.56;79.61;101316.81;5093289;28;20024;-58
2023/07/20 01:57:00;;;;;;;12.85;6.13;;;;;;;18.55;80.14;101323.09;5093290;28;20024;-58
2023/07/20 01:59:26;;;;;;;10.30;6.32;;;;;;;18.53;80.25;101328.44;5093209;28;20054;-58
2023/07/20 02:01:52;;;;;;;10.45;6.10;;;;;;;18.53;80.42;101323.97;5075132;28;20036;-58
2023/07/20 02:04:17;;;;;;;14.88;7.25;;;;;;;18.49;80.96;101324.94;5093183;28;20031;-58
2023/07/20 02:06:43;;;;;;;13.30;8.00;;;;;;;18.35;81.28;101328.72;5093421;28;20029;-58
2023/07/20 02:09:08;;;;;;;14.02;7.90;;;;;;;18.27;81.61;101328.81;5092831;28;20036;-59
2023/07/20 02:11:33;;;;;;;11.48;7.95;;;;;;;18.21;82.12;101328.91;5074990;28;20473;-58
2023/07/20 02:13:59;;;;;;;18.20;8.68;;;;;;;18.10;82.93;101337.06;5093071;28;20073;-58
2023/07/20 02:16:24;;;;;;;13.75;9.20;;;;;;;18.15;82.61;101326.28;5093298;28;20465;-57
2023/07/20 02:18:49;;;;;;;11.73;8.25;;;;;;;18.20;82.34;101333.38;5093037;28;20072;-58
2023/07/20 02:21:15;;;;;;;13.13;8.60;;;;;;;18.17;82.99;101340.53;5092990;28;20028;-58
2023/07/20 02:23:41;;;;;;;11.40;8.50;;;;;;;18.17;82.79;101330.72;5093027;28;20039;-60
2023/07/20 02:26:06;;;;;;;13.43;8.75;;;;;;;18.25;82.38;101333.31;5092940;28;20039;-57
2023/07/20 02:28:32;;;;;;;12.35;9.50;;;;;;;18.18;82.81;101339.63;5092877;28;20123;-58
2023/07/20 02:30:57;;;;;;;12.68;8.98;;;;;;;18.16;82.73;101341.47;5092860;28;20389;-58
2023/07/20 02:33:23;;;;;;;12.07;9.35;;;;;;;18.21;83.13;101337.81;5093182;28;20412;-58
2023/07/20 02:35:49;;;;;;;13.35;9.98;;;;;;;18.23;83.06;101344.00;5092952;28;20111;-58
2023/07/20 02:38:14;;;;;;;13.05;9.20;;;;;;;18.13;82.94;101342.38;5092692;28;20489;-57
2023/07/20 02:40:39;;;;;;;14.13;9.30;;;;;;;18.20;83.00;101346.75;5092610;28;20060;-58
2023/07/20 02:43:05;;;;;;;15.40;10.65;;;;;;;18.23;82.78;101351.16;5092876;28;20062;-57
2023/07/20 02:45:30;;;;;;;14.55;9.70;;;;;;;18.27;82.54;101345.75;5092860;28;20437;-59
2023/07/20 02:47:56;;;;;;;13.07;9.43;;;;;;;18.25;nan;101350.25;5092769;28;20020;-58
2023/07/20 02:50:22;;;;;;;14.55;9.45;;;;;;;18.18;83.24;101356.56;5092771;28;20044;-57
2023/07/20 02:52:47;;;;;;;12.73;9.45;;;;;;;18.22;83.15;101360.97;5092764;28;20032;-57
2023/07/20 02:55:13;;;;;;;15.35;9.73;;;;;;;18.13;83.42;101361.09;5096206;28;20435;-58
2023/07/20 02:57:38;;;;;;;13.40;9.45;;;;;;;18.09;83.85;101362.03;5096511;28;20122;-58
2023/07/20 03:00:07;;;;;;;12.63;9.45;;;;;;;18.08;83.48;101362.06;5096213;28;20077;-57
2023/07/20 03:02:33;;;;;;;14.68;9.38;;;;;;;18.16;83.60;101363.75;5096527;28;20053;-58
2023/07/20 03:04:58;;;;;;;12.52;9.15;;;;;;;18.12;83.34;101371.81;5096173;28;20559;-57
2023/07/20 03:07:26;;;;;;;13.55;8.90;;;;;;;18.09;83.58;101370.06;5096206;28;20157;-59
2023/07/20 03:09:51;;;;;;;12.07;9.13;;;;;;;17.97;84.03;101370.19;5077631;28;20028;-58
2023/07/20 03:12:17;;;;;;;15.43;8.77;;;;;;;17.95;83.84;101378.25;5096046;28;20028;-58
2023/07/20 03:14:42;;;;;;;13.88;8.50;;;;;;;17.93;84.49;101377.34;5077968;28;20038;-58
2023/07/20 03:17:08;;;;;;;11.63;7.80;;;;;;;17.91;84.03;101373.84;5095959;28;20027;-57
2023/07/20 03:19:33;;;;;;;11.20;8.35;;;;;;;17.81;84.29;101376.59;5096022;28;20484;-59
2023/07/20 03:21:59;;;;;;;10.48;8.07;;;;;;;17.81;83.92;101382.84;5095894;28;20024;-57
2023/07/20 03:24:24;;;;;;;13.25;7.40;;;;;;;17.78;84.01;101390.91;5095794;28;20063;-59
2023/07/20 03:26:50;;;;;;;10.55;7.47;;;;;;;17.76;84.05;101382.88;5095756;28;20489;-57
2023/07/20 03:29:16;;;;;;;9.80;6.43;;;;;;;17.68;84.03;101390.06;5095664;28;20400;-58
2023/07/20 03:31:41;;;;;;;10.38;6.05;;;;;;;17.68;83.86;101392.72;5096075;28;20032;-58
2023/07/20 03:34:08;;;;;;;7.60;5.45;;;;;;;17.62;83.89;101389.25;5095645;28;20436;-58
2023/07/20 03:36:34;;;;;;;7.70;5.15;;;;;;;17.66;83.83;101393.66;5095843;28;20063;-58
2023/07/20 03:38:59;;;;;;;6.18;5.00;;;;;;;17.59;84.05;101394.63;5095541;28;20051;-57
2023/07/20 03:41:24;;;;;;;7.15;5.10;;;;;;;17.59;84.05;101386.59;5095398;28;20397;-58
2023/07/20 03:43:50;;;;;;;7.20;5.07;;;;;;;17.60;83.97;101391.03;5095271;28;20059;-59
2023/07/20 03:46:15;;;;;;;7.13;5.07;;;;;;;17.59;83.74;101398.16;5095355;28;20020;-57
2023/07/20 03:48:41;;;;;;;7.43;4.75;;;;;;;17.53;83.43;101391.09;5076827;28;20065;-57
2023/07/20 03:51:06;;;;;;;7.55;4.63;;;;;;;17.57;83.70;101399.97;5094613;28;20497;-59
2023/07/20 03:53:32;;;;;;;7.28;5.03;;;;;;;17.57;83.44;101393.75;5094499;28;20034;-57
2023/07/20 03:55:58;;;;;;;8.02;5.13;;;;;;;17.54;83.77;101394.66;5094794;28;20031;-58
2023/07/20 03:58:23;;;;;;;8.35;4.80;;;;;;;17.58;83.55;101399.06;5094573;28;20035;-58
2023/07/20 04:00:50;;;;;;;9.27;5.10;;;;;;;17.57;83.52;101399.97;5094332;28;20043;-59
2023/07/20 04:03:17;;;;;;;9.93;6.05;;;;;;;17.53;83.96;101404.47;5094815;28;20032;-57
2023/07/20 04:05:43;;;;;;;8.68;6.20;;;;;;;17.53;83.88;101403.59;5093313;28;20489;-58
2023/07/20 04:08:10;;;;;;;10.23;6.75;;;;;;;17.58;83.95;101401.75;5094432;28;20035;-58
2023/07/20 04:10:36;;;;;;;10.18;7.07;;;;;;;17.61;84.10;101406.19;5093864;28;20066;-57
2023/07/20 04:13:02;;;;;;;9.75;7.18;;;;;;;17.55;83.81;101408.91;5076209;28;20540;-58
2023/07/20 04:15:27;;;;;;;10.18;7.85;;;;;;;17.51;84.01;101408.94;5094403;28;20028;-58
2023/07/20 04:17:52;;;;;;;8.80;7.43;;;;;;;17.60;83.79;101407.06;5094200;28;20031;-58
2023/07/20 04:20:18;;;;;;;10.52;7.53;;;;;;;17.58;83.91;101412.44;5094198;28;20032;-58
2023/07/20 04:22:44;;;;;;;11.70;7.35;;;;;;;17.55;84.24;101406.22;5094355;28;20032;-58
2023/07/20 04:25:09;;;;;;;9.65;6.80;;;;;;;17.57;83.94;101405.34;5094012;28;20024;-57
2023/07/20 04:27:35;;;;;;;9.55;6.80;;;;;;;17.53;83.79;101412.47;5093645;28;20068;-58
2023/07/20 04:30:01;;;;;;;9.55;6.53;;;;;;;17.41;83.77;101411.69;5094264;28;20115;-59
2023/07/20 04:32:27;;;;;;;8.23;6.13;;;;;;;17.38;84.33;101415.28;5094079;28;20030;-58
2023/07/20 04:34:52;;;;;;;10.32;5.93;;;;;;;17.47;83.81;101409.88;5094258;28;20404;-59
2023/07/20 04:37:18;;;;;;;8.60;5.90;;;;;;;17.59;84.02;101418.66;5094052;28;20513;-57
2023/07/20 04:39:43;;;;;;;8.55;6.45;;;;;;;17.68;83.07;101406.09;5094143;28;20028;-57
2023/07/20 04:42:09;;;;;;;8.13;5.82;;;;;;;17.67;83.05;101411.47;5093549;28;20416;-59
2023/07/20 04:44:34;;;;;;;9.43;6.13;;;;;;;17.63;83.27;101415.94;5093605;28;20031;-57
2023/07/20 04:47:00;;;;;;;7.55;6.03;;;;;;;17.66;83.11;101410.59;5093263;28;20042;-58
2023/07/20 04:49:25;;;;;;;7.05;6.20;;;;;;;17.63;82.79;101421.28;5075046;28;20531;-58
2023/07/20 04:51:51;;;;;;;8.15;6.20;;;;;;;17.65;83.11;101414.16;5093579;28;20032;-58
2023/07/20 04:54:18;;;;;;;7.78;5.70;;;;;;;17.73;82.55;101409.63;5093374;28;20024;-58
2023/07/20 04:56:43;;;;;;;9.63;6.70;;;;;;;17.72;82.31;101417.66;5093694;28;20028;-58
2023/07/20 04:59:09;;;;;;;7.90;6.50;;;;;;;17.74;82.42;101413.22;5093136;28;20367;-58
2023/07/20 05:01:34;;;;;;;10.85;7.00;;;;;;;17.72;82.39;101409.63;5093374;28;20024;-59
2023/07/20 05:04:00;;;;;;;8.63;6.10;;;;;;;17.77;81.90;101410.50;5093460;28;20058;-58
2023/07/20 05:06:25;;;;;;;10.02;6.40;;;;;;;17.85;81.50;101413.97;5093468;28;20028;-58
2023/07/20 05:08:51;;;;;;;7.63;6.20;;;;;;;17.93;81.63;101414.78;5093081;28;20036;-57
2023/07/20 05:11:16;;;;;;;7.07;5.70;;;;;;;17.97;81.14;101407.63;5093022;28;20437;-58
2023/07/20 05:13:42;;;;;;;10.23;5.90;;;;;;;17.93;81.14;101398.75;5093486;28;20039;-58
2023/07/20 05:16:08;;;;;;;9.98;6.70;;;;;;;17.92;81.10;101409.47;5092793;28;20478;-58
2023/07/20 05:18:33;;;;;;;8.40;6.45;;;;;;;17.92;82.05;101401.44;5093078;28;20036;-58
2023/07/20 05:20:58;;;;;;;12.07;7.38;;;;;;;17.90;82.20;101403.25;5092821;28;20028;-59
2023/07/20 05:23:24;;;;;;;12.73;7.55;;;;;;;18.04;81.32;101408.47;5075058;28;20025;-58
2023/07/20 05:25:57;;;;;;;9.80;7.80;;;;;;;18.07;81.61;101406.63;5092753;28;20040;-58
2023/07/20 05:28:23;;;;;;;10.75;7.40;;;;;;;18.16;81.38;101403.88;5092777;28;20082;-58
2023/07/20 05:30:51;;;;;;;10.65;7.60;;;;;;;18.29;81.15;101411.75;5092638;28;20031;-58
2023/07/20 05:33:21;;;;;;;10.20;7.53;;;;;;;18.35;80.09;101427.72;5092834;28;20040;-58
2023/07/20 05:35:48;;;;;;;10.30;7.85;;;;;;;18.44;80.37;101430.28;5092795;28;20066;-58
2023/07/20 05:38:14;;;;;;;12.15;8.38;;;;;;;18.50;80.09;101432.91;5092796;28;20028;-59
2023/07/20 05:40:41;;;;;;;10.02;7.18;;;;;;;18.65;79.53;101430.00;5074954;28;20042;-59
2023/07/20 05:43:07;;;;;;;9.15;7.20;;;;;;;18.65;78.90;101431.78;5072312;28;20378;-58
2023/07/20 05:45:32;;;;;;;10.20;7.72;;;;;;;18.65;78.10;101440.72;5072585;28;20119;-58
2023/07/20 05:47:58;;;;;;;11.40;7.55;;;;;;;18.75;78.40;101437.03;5072559;28;20024;-58
2023/07/20 05:50:23;;;;;;;11.52;7.20;;;;;;;18.88;78.58;101437.75;5072505;28;20029;-59
2023/07/20 05:52:48;;;;;;;9.55;6.63;;;;;;;19.00;77.54;101442.94;5054478;28;20104;-58
2023/07/20 05:55:14;;;;;;;10.27;6.95;;;;;;;19.01;77.37;101444.72;5072430;28;20031;-58
2023/07/20 05:57:43;;;;;;;8.18;6.60;;;;;;;19.10;76.43;101448.13;5072395;28;20033;-59
2023/07/20 06:00:09;;;;;;;10.52;6.63;;;;;;;19.12;76.51;101446.34;5072371;28;20115;-58
2023/07/20 06:02:35;;;;;;;11.02;7.00;;;;;;;19.06;76.42;101447.34;5072596;28;20020;-59
2023/07/20 06:05:00;;;;;;;8.48;5.93;;;;;;;19.14;76.16;101447.19;5072542;28;20532;-58
2023/07/20 06:07:26;;;;;;;9.73;6.47;;;;;;;19.21;76.16;101447.09;5072532;28;20032;-58
2023/07/20 06:09:51;;;;;;;10.02;6.65;;;;;;;19.32;75.75;101448.72;5071570;28;20039;-58
2023/07/20 06:12:17;;;;;;;8.07;6.03;;;;;;;19.20;75.07;101448.00;5072265;28;20081;-58
2023/07/20 06:14:42;;;;;;;7.32;5.40;;;;;;;19.26;75.46;101455.94;5072431;28;20036;-59
2023/07/20 06:17:07;;;;;;;10.05;5.68;;;;;;;19.29;75.58;101460.38;5072534;28;20405;-57
2023/07/20 06:19:33;;;;;;;6.80;4.80;;;;;;;19.31;74.83;101455.84;5071846;28;20445;-58
2023/07/20 06:21:58;;;;;;;8.05;4.90;;;;;;;19.39;73.64;101455.75;5072229;28;20110;-59
2023/07/20 06:24:24;;;;;;;7.50;5.28;;;;;;;19.52;73.35;101460.00;5071922;28;20032;-59
2023/07/20 06:26:49;;;;;;;5.82;4.25;;;;;;;19.90;71.89;101464.72;5072089;28;20025;-58
2023/07/20 06:29:15;;;;;;;7.88;4.68;;;;;;;20.22;71.09;101457.91;5073556;28;20056;-59
2023/07/20 06:31:40;;;;;;;9.75;5.05;;;;;;;20.42;71.25;101462.84;5075945;28;20045;-58
2023/07/20 06:34:06;;;;;;;6.60;4.88;;;;;;;20.79;70.21;101456.75;5057976;28;20039;-58
2023/07/20 06:36:31;;;;;;;6.25;4.10;;;;;;;20.96;67.90;101459.97;5075903;28;20029;-59
2023/07/20 06:38:57;;;;;;;7.93;4.90;;;;;;;21.01;67.49;101455.34;5075972;28;20143;-59
2023/07/20 06:41:22;;;;;;;6.75;4.70;;;;;;;21.06;67.61;101452.56;5075556;28;20469;-58
2023/07/20 06:43:48;;;;;;;7.68;5.25;;;;;;;21.15;67.73;101452.34;5076092;28;20203;-58
2023/07/20 06:46:13;;;;;;;8.13;5.47;;;;;;;21.28;67.61;101448.44;5075680;28;20016;-60
2023/07/20 06:48:39;;;;;;;7.95;5.07;;;;;;;21.21;65.67;101453.09;5075725;28;20020;-58
2023/07/20 06:51:04;;;;;;;8.13;4.88;;;;;;;21.06;67.21;101457.94;5075440;28;20414;-58
2023/07/20 06:53:30;;;;;;;6.78;4.80;;;;;;;20.88;66.80;101456.56;5075214;28;20039;-58
2023/07/20 06:55:58;;;;;;;6.75;4.68;;;;;;;20.69;67.30;101456.97;5074615;28;20093;-59
2023/07/20 06:58:24;;;;;;;8.63;5.03;;;;;;;20.58;67.84;101467.03;5074021;28;20082;-58
2023/07/20 07:00:50;;;;;;;8.02;5.18;;;;;;;20.41;68.06;101458.41;5074170;28;20024;-58
2023/07/20 07:03:15;;;;;;;7.53;5.35;;;;;;;20.31;68.71;101459.53;5074025;28;20469;-59
2023/07/20 07:05:41;;;;;;;7.30;5.25;;;;;;;20.16;69.44;101460.69;5055882;28;20025;-58
2023/07/20 07:08:07;;;;;;;9.88;5.43;;;;;;;20.03;70.31;101457.34;5055817;28;20115;-58
2023/07/20 07:10:35;;;;;;;6.28;4.82;;;;;;;19.93;69.98;101464.69;5056199;28;20032;-57
2023/07/20 07:13:01;;;;;;;7.35;5.03;;;;;;;19.84;70.04;101463.97;5075114;28;20032;-57
2023/07/20 07:15:27;;;;;;;7.10;5.20;;;;;;;19.86;70.79;101470.19;5075115;28;20029;-59
2023/07/20 07:17:52;;;;;;;6.70;4.82;;;;;;;19.74;70.70;101474.88;5074965;28;20405;-58
2023/07/20 07:20:18;;;;;;;8.02;4.95;;;;;;;19.71;70.53;101477.59;5075389;28;20147;-58
2023/07/20 07:22:43;;;;;;;7.65;4.47;;;;;;;19.70;71.00;101483.88;5057115;28;20499;-58
2023/07/20 07:25:09;;;;;;;6.93;4.65;;;;;;;19.64;70.83;101477.72;5075228;28;20143;-58
2023/07/20 07:27:35;;;;;;;7.50;4.40;;;;;;;19.65;71.25;101484.84;5074819;28;20052;-58
2023/07/20 07:30:02;;;;;;;5.72;4.43;;;;;;;19.69;70.79;101479.41;5074758;28;20386;-58
2023/07/20 07:32:27;;;;;;;7.45;4.00;;;;;;;19.71;70.44;101476.72;5075218;28;20029;-59
2023/07/20 07:34:52;;;;;;;4.60;3.67;;;;;;;19.70;69.94;101473.16;5074725;28;20386;-57
2023/07/20 07:37:19;;;;;;;5.10;3.30;;;;;;;19.76;68.97;101475.72;5075152;28;20061;-58
2023/07/20 07:39:45;;;;;;;4.05;3.28;;;;;;;19.75;68.96;101475.75;5073331;28;20041;-58
2023/07/20 07:42:12;;;;;;;6.45;3.58;;;;;;;19.74;69.08;101474.88;5074435;28;20078;-59
2023/07/20 07:44:37;;;;;;;4.20;3.15;;;;;;;19.74;68.56;101480.22;5074957;28;20083;-58
2023/07/20 07:47:03;;;;;;;4.45;2.95;;;;;;;19.74;67.10;101484.69;5074552;28;20108;-58
2023/07/20 07:49:29;;;;;;;5.75;2.78;;;;;;;19.81;67.36;101489.03;5074473;28;20074;-58
2023/07/20 07:51:54;;;;;;;7.10;2.80;;;;;;;19.80;67.18;101486.38;5074378;28;20431;-58
2023/07/20 07:54:19;;;;;;;3.65;2.50;;;;;;;19.73;66.03;101491.84;5074493;28;20017;-57
2023/07/20 07:56:45;;;;;;;3.70;2.47;;;;;;;19.72;66.81;101490.06;5074442;28;20392;-58
2023/07/20 07:59:11;;;;;;;4.03;2.83;;;;;;;19.94;66.45;101495.94;5074717;28;20037;-59
2023/07/20 08:01:36;;;;;;;4.10;2.92;;;;;;;20.31;65.84;101494.41;5074223;28;20028;-59
2023/07/20 08:04:03;;;;;;;7.97;2.90;;;;;;;20.82;63.73;101491.63;5074240;28;20036;-58
2023/07/20 08:06:29;;;;;;;6.65;2.80;;;;;;;21.23;64.13;101496.06;5074212;28;20035;-58
2023/07/20 08:08:54;;;;;;;4.47;2.55;;;;;;;21.80;60.28;101495.63;5056103;28;20028;-59
2023/07/20 08:11:20;;;;;;;4.57;2.70;;;;;;;22.41;57.55;101495.81;5073986;28;20032;-59
2023/07/20 08:13:45;;;;;;;6.45;2.53;;;;;;;22.86;55.40;101500.78;5074269;28;20047;-58
2023/07/20 08:16:11;;;;;;;3.72;2.50;;;;;;;23.07;55.33;101499.31;5074038;28;20584;-59
2023/07/20 08:18:36;;;;;;;3.60;2.40;;;;;;;23.31;54.32;101497.66;5074228;28;20032;-58
2023/07/20 08:21:02;;;;;;;3.47;2.53;;;;;;;23.40;53.37;101500.06;5074005;28;20040;-58
2023/07/20 08:23:28;;;;;;;4.68;2.88;;;;;;;23.31;53.47;101503.06;5073752;28;20086;-58
2023/07/20 08:25:53;;;;;;;5.00;2.70;;;;;;;23.22;53.58;101501.53;5073761;28;20063;-57
2023/07/20 08:28:18;;;;;;;3.17;2.10;;;;;;;22.97;53.50;101504.09;5073556;28;20521;-58
2023/07/20 08:30:46;;;;;;;2.75;2.28;;;;;;;22.86;53.49;101506.19;5055948;28;20029;-57
2023/07/20 08:33:14;;;;;;;3.80;2.00;;;;;;;22.73;53.38;101500.28;5055633;28;20028;-58
2023/07/20 08:35:40;;;;;;;3.65;2.22;;;;;;;22.50;54.05;101501.81;5055640;28;20021;-58
2023/07/20 08:38:05;;;;;;;3.20;2.30;;;;;;;22.32;55.01;101496.97;5073185;28;20089;-58
2023/07/20 08:40:39;;;;;;;5.22;2.55;;;;;;;22.38;55.85;101490.50;5073427;28;20029;-57
2023/07/20 08:43:05;;;;;;;5.20;2.60;;;;;;;22.27;55.85;101495.31;5073463;28;20115;-58
2023/07/20 08:45:33;;;;;;;3.80;3.00;;;;;;;22.36;55.28;101495.06;5055637;28;20111;-59
2023/07/20 08:48:02;;;;;;;4.80;3.15;;;;;;;22.33;55.85;101493.34;5072639;28;20041;-59
2023/07/20 08:50:30;;;;;;;5.80;3.08;;;;;;;22.56;55.03;101491.78;5072906;28;20028;-58
2023/07/20 08:52:57;;;;;;;3.85;2.80;;;;;;;23.07;55.58;101483.13;5072899;28;20020;-57
2023/07/20 08:55:24;;;;;;;4.75;2.95;;;;;;;23.54;53.25;101487.00;5073049;28;20123;-58
2023/07/20 08:57:57;;;;;;;4.72;3.10;;;;;;;23.75;51.88;101488.13;5055621;28;20552;-58
2023/07/20 09:00:25;;;;;;;4.28;2.60;;;;;;;23.74;52.26;101489.06;5073495;28;20027;-59
2023/07/20 09:02:51;;;;;;;3.97;2.40;;;;;;;24.09;50.90;101495.06;5073203;28;20463;-59
2023/07/20 09:05:17;;;;;;;2.97;2.30;;;;;;;24.32;50.13;101488.84;5073348;28;20016;-59
2023/07/20 09:07:43;;;;;;;3.60;2.60;;;;;;;24.32;49.22;101489.72;5071338;28;20039;-60
2023/07/20 09:10:10;;;;;;;4.72;2.60;;;;;;;24.24;50.41;101490.03;5071002;28;20445;-58
2023/07/20 09:12:37;;;;;;;4.72;2.92;;;;;;;23.91;51.09;101493.91;5071080;28;20048;-58
2023/07/20 09:15:04;;;;;;;4.70;2.75;;;;;;;23.73;52.40;101485.50;5053224;28;20025;-58
2023/07/20 09:17:30;;;;;;;4.05;2.53;;;;;;;23.72;51.50;101481.03;5071010;28;20025;-59
2023/07/20 09:19:55;;;;;;;3.92;2.30;;;;;;;23.82;49.09;101489.69;5071068;28;20081;-58
2023/07/20 09:22:20;;;;;;;4.85;2.30;;;;;;;24.34;48.24;101484.28;5071868;28;20096;-58
2023/07/20 09:24:46;;;;;;;2.40;2.00;;;;;;;24.64;46.61;101491.28;5072823;28;20032;-58
2023/07/20 09:27:12;;;;;;;3.53;2.30;;;;;;;24.97;46.16;101480.13;5073015;28;20100;-58
2023/07/20 09:29:53;;;;;;;2.65;2.00;;;;;;;25.08;47.65;101477.91;5054532;28;20061;-58
2023/07/20 09:32:23;;;;;;;7.70;2.35;;;;;;;24.80;46.13;101478.09;5072218;28;20486;-60
2023/07/20 09:34:51;;;;;;;2.70;1.90;;;;;;;25.17;46.32;101474.81;5072181;28;20052;-56
2023/07/20 09:37:24;;;;;;;2.42;2.10;;;;;;;25.69;45.86;101471.78;5072441;28;20028;-57
2023/07/20 09:39:52;;;;;;;3.53;1.80;;;;;;;26.14;44.49;101465.38;5071891;28;20024;-58
2023/07/20 09:42:18;;;;;;;2.70;1.95;;;;;;;26.50;41.97;101470.13;5072517;28;20417;-58
2023/07/20 09:44:44;;;;;;;3.28;1.90;;;;;;;26.75;40.93;101467.16;5072716;28;20044;-58
2023/07/20 09:47:10;;;;;;;4.18;2.22;;;;;;;26.79;39.64;101464.22;5072262;28;20028;-58
2023/07/20 09:49:42;;;;;;;2.67;1.90;;;;;;;26.48;41.02;101467.50;5072596;28;20029;-58
2023/07/20 09:52:09;;;;;;;2.10;1.70;;;;;;;26.33;41.87;101463.59;5072421;28;20040;-58
2023/07/20 09:54:38;;;;;;;5.63;1.77;;;;;;;26.09;42.48;101454.75;5054760;28;20032;-58
2023/07/20 09:57:04;;;;;;;3.00;1.75;;;;;;;26.19;41.28;101466.94;5072404;28;20043;-57
2023/07/20 09:59:29;;;;;;;3.55;1.58;;;;;;;26.38;40.73;101456.16;5072747;28;20112;-58
2023/07/20 10:02:01;;;;;;;3.47;1.75;;;;;;;26.43;40.61;101455.94;5072704;28;20104;-58
2023/07/20 10:04:28;;;;;;;1.98;1.73;;;;;;;26.39;41.59;101457.91;5074796;28;20491;-57
2023/07/20 10:06:56;;;;;;;3.08;1.70;;;;;;;26.69;40.13;101452.94;5076495;28;20111;-58
2023/07/20 10:09:23;;;;;;;2.67;1.70;;;;;;;26.97;40.77;101452.50;5076441;28;20028;-59
2023/07/20 10:11:50;;;;;;;3.33;1.77;;;;;;;27.11;41.01;101449.16;5076510;28;20062;-59
2023/07/20 10:14:20;;;;;;;3.33;1.60;;;;;;;27.18;40.41;101455.16;5076341;28;20025;-59
2023/07/20 10:16:57;;;;;;;2.55;1.60;;;;;;;26.84;40.69;101456.75;5076326;28;20025;-58
2023/07/20 10:19:30;;;;;;;2.83;1.83;;;;;;;26.50;41.91;101449.31;5076247;28;20161;-58
2023/07/20 10:22:03;;;;;;;1.75;1.65;;;;;;;26.29;41.13;101458.38;5076200;28;20081;-58
2023/07/20 10:24:31;;;;;;;4.15;1.70;;;;;;;25.89;41.28;101454.75;5076241;28;20025;-58
2023/07/20 10:26:57;;;;;;;2.70;1.70;;;;;;;26.14;42.16;101441.88;5076144;28;20025;-59
2023/07/20 10:29:24;;;;;;;2.75;1.67;;;;;;;26.37;41.28;101443.53;5075688;28;20045;-58
2023/07/20 10:31:49;;;;;;;3.35;1.80;;;;;;;26.31;39.49;101441.13;5076011;28;20028;-58
2023/07/20 10:34:16;;;;;;;2.35;1.50;;;;;;;26.06;40.48;101441.34;5076197;28;20016;-59
2023/07/20 10:36:52;;;;;;;2.30;1.60;;;;;;;25.88;41.73;101443.03;5075865;28;20462;-58
2023/07/20 10:39:30;;;;;;;4.60;1.77;;;;;;;25.72;41.91;101439.19;5075780;28;20437;-58
2023/07/20 10:42:03;;;;;;;2.90;1.73;;;;;;;25.59;41.52;101433.41;5075853;28;20037;-58
2023/07/20 10:44:29;;;;;;;4.60;1.90;;;;;;;25.87;40.88;101441.28;5075949;28;20032;-57
2023/07/20 10:47:02;;;;;;;3.63;1.60;;;;;;;26.11;40.07;101436.59;5075552;28;20027;-58
2023/07/20 10:49:28;;;;;;;1.85;1.50;;;;;;;26.23;37.97;101435.16;5075774;28;20064;-58
2023/07/20 10:52:01;;;;;;;2.70;1.60;;;;;;;25.87;37.66;101425.03;5075813;28;20052;-59
2023/07/20 10:54:26;;;;;;;4.13;1.60;;;;;;;25.92;39.54;101428.41;5075967;28;20040;-58
2023/07/20 10:56:52;;;;;;;4.65;1.60;;;;;;;26.00;40.30;101425.38;5075413;28;20099;-59
2023/07/20 10:59:19;;;;;;;2.20;1.50;;;;;;;25.91;41.17;101420.34;5075635;28;20124;-58
2023/07/20 11:01:50;;;;;;;1.88;1.70;;;;;;;25.94;42.04;101425.63;5075190;28;20116;-59
2023/07/20 11:04:18;;;;;;;2.97;1.75;;;;;;;25.87;40.80;101425.03;5075393;28;20028;-59
2023/07/20 11:06:44;;;;;;;1.95;1.60;;;;;;;26.02;41.81;101422.59;5075429;28;20097;-58
2023/07/20 11:09:14;;;;;;;3.40;1.73;;;;;;;26.05;40.58;101415.22;5075190;28;20462;-59
2023/07/20 11:11:40;;;;;;;3.75;1.77;;;;;;;25.87;39.57;101421.44;5074841;28;20100;-57
2023/07/20 11:14:08;;;;;;;2.35;1.70;;;;;;;25.82;40.38;101426.16;5056894;28;20025;-58
2023/07/20 11:16:43;;;;;;;3.80;1.70;;;;;;;25.83;40.46;101425.25;5075354;28;20078;-58
2023/07/20 11:19:25;;;;;;;1.88;1.60;;;;;;;26.25;39.91;101422.41;5075008;28;20017;-58
2023/07/20 11:21:52;;;;;;;4.15;1.80;;;;;;;26.47;39.38;101414.25;5075107;28;20040;-58